createdAt,value
2018-12-06T00:01:01.665Z,7.50
2018-12-06T00:03:30.195Z,7.50
2018-12-06T00:05:58.819Z,7.50
2018-12-06T00:08:27.364Z,7.50
2018-12-06T00:10:55.817Z,7.40
2018-12-06T00:13:24.416Z,7.40
2018-12-06T00:15:52.883Z,7.40
2018-12-06T00:18:21.295Z,7.40
2018-12-06T00:20:49.853Z,7.40
2018-12-06T00:23:18.346Z,7.40
2018-12-06T00:25:46.858Z,7.40
2018-12-06T00:28:15.350Z,7.40
2018-12-06T00:30:43.888Z,7.40
2018-12-06T00:33:12.318Z,7.50
2018-12-06T00:35:40.739Z,7.50
2018-12-06T00:38:09.215Z,7.60
2018-12-06T00:40:37.776Z,7.60
2018-12-06T00:43:06.298Z,7.60
2018-12-06T00:45:34.847Z,7.60
2018-12-06T00:48:03.277Z,7.50
2018-12-06T00:50:31.878Z,7.60
2018-12-06T00:53:00.607Z,7.50
2018-12-06T00:55:29.067Z,7.60
2018-12-06T00:57:57.594Z,7.50
2018-12-06T01:00:26.061Z,7.60
2018-12-06T01:02:54.522Z,7.60
2018-12-06T01:05:22.971Z,7.60
2018-12-06T01:07:51.396Z,7.70
2018-12-06T01:10:19.839Z,7.70
2018-12-06T01:12:50.295Z,7.60
2018-12-06T01:15:18.807Z,7.80
2018-12-06T01:17:47.265Z,7.90
2018-12-06T01:20:15.774Z,7.90
2018-12-06T01:22:44.340Z,7.90
2018-12-06T01:25:13.431Z,7.80
2018-12-06T01:27:42.036Z,7.80
2018-12-06T01:30:10.690Z,7.80
2018-12-06T01:32:39.178Z,7.80
2018-12-06T01:35:08.043Z,7.70
2018-12-06T01:37:36.598Z,7.70
2018-12-06T01:40:05.266Z,7.80
2018-12-06T01:42:34.324Z,7.80
2018-12-06T01:45:03.395Z,7.80
2018-12-06T01:47:31.898Z,7.80
2018-12-06T01:50:00.395Z,7.80
2018-12-06T01:52:28.836Z,7.80
2018-12-06T01:54:58.229Z,7.80
2018-12-06T01:57:26.757Z,7.80
2018-12-06T01:59:55.260Z,7.80
2018-12-06T02:02:23.699Z,7.90
2018-12-06T02:04:52.307Z,7.80
2018-12-06T02:07:21.137Z,7.80
2018-12-06T02:09:49.639Z,7.90
2018-12-06T02:12:18.271Z,7.80
2018-12-06T02:14:46.711Z,7.80
2018-12-06T02:17:15.201Z,7.90
2018-12-06T02:19:43.722Z,7.90
2018-12-06T02:22:12.563Z,7.90
2018-12-06T02:24:41.050Z,7.90
2018-12-06T02:27:09.480Z,7.90
2018-12-06T02:29:43.100Z,8.00
2018-12-06T02:32:11.665Z,8.00
2018-12-06T02:34:40.090Z,8.00
2018-12-06T02:37:10.120Z,8.00
2018-12-06T02:39:38.563Z,8.10
2018-12-06T02:42:06.997Z,8.10
2018-12-06T02:44:35.782Z,8.10
2018-12-06T02:47:04.304Z,8.20
2018-12-06T02:49:32.966Z,8.20
2018-12-06T02:52:01.417Z,8.20
2018-12-06T02:54:29.884Z,8.30
2018-12-06T02:56:58.319Z,8.30
2018-12-06T02:59:26.893Z,8.30
2018-12-06T03:01:55.402Z,8.20
2018-12-06T03:04:23.962Z,8.30
2018-12-06T03:06:52.455Z,8.30
2018-12-06T03:09:20.986Z,8.30
2018-12-06T03:11:49.439Z,8.30
2018-12-06T03:14:17.919Z,8.30
2018-12-06T03:16:46.388Z,8.30
2018-12-06T03:19:14.927Z,8.30
2018-12-06T03:21:43.428Z,8.30
2018-12-06T03:24:11.976Z,8.30
2018-12-06T03:26:40.669Z,8.30
2018-12-06T03:29:09.119Z,8.30
2018-12-06T03:31:37.637Z,8.40
2018-12-06T03:34:06.127Z,8.40
2018-12-06T03:36:34.647Z,8.40
2018-12-06T03:39:04.858Z,8.40
2018-12-06T03:41:33.805Z,8.50
2018-12-06T03:44:02.216Z,8.40
2018-12-06T03:46:30.662Z,8.40
2018-12-06T03:48:59.119Z,8.50
2018-12-06T03:51:27.594Z,8.50
2018-12-06T03:53:56.115Z,8.50
2018-12-06T03:56:24.586Z,8.60
2018-12-06T03:58:52.993Z,8.50
2018-12-06T04:01:21.419Z,8.50
2018-12-06T04:03:49.839Z,8.50
2018-12-06T04:06:18.255Z,8.50
2018-12-06T04:08:46.691Z,8.60
2018-12-06T04:11:15.213Z,8.60
2018-12-06T04:13:43.685Z,8.60
2018-12-06T04:16:12.110Z,8.60
2018-12-06T04:18:40.555Z,8.60
2018-12-06T04:21:09.020Z,8.60
2018-12-06T04:23:37.442Z,8.60
2018-12-06T04:26:05.905Z,8.60
2018-12-06T04:28:34.338Z,8.60
2018-12-06T04:31:02.791Z,8.60
2018-12-06T04:33:31.272Z,8.60
2018-12-06T04:35:59.920Z,8.60
2018-12-06T04:38:28.607Z,8.70
2018-12-06T04:40:57.011Z,8.70
2018-12-06T04:43:25.451Z,8.70
2018-12-06T04:45:53.919Z,8.70
2018-12-06T04:48:23.927Z,8.80
2018-12-06T04:50:52.428Z,8.70
2018-12-06T04:53:20.892Z,8.80
2018-12-06T04:55:49.311Z,8.80
2018-12-06T04:58:17.929Z,8.90
2018-12-06T05:00:46.480Z,8.90
2018-12-06T05:03:14.899Z,8.80
2018-12-06T05:05:43.381Z,8.80
2018-12-06T05:08:11.857Z,8.80
2018-12-06T05:10:40.311Z,8.80
2018-12-06T05:13:08.855Z,8.80
2018-12-06T05:15:37.357Z,8.80
2018-12-06T05:18:05.807Z,8.80
2018-12-06T05:20:34.351Z,8.90
2018-12-06T05:23:02.805Z,8.90
2018-12-06T05:25:31.294Z,8.90
2018-12-06T05:27:59.839Z,8.80
2018-12-06T05:30:28.514Z,8.80
2018-12-06T05:32:57.035Z,8.80
2018-12-06T05:35:26.115Z,9.00
2018-12-06T05:37:54.561Z,8.90
2018-12-06T05:40:23.027Z,8.90
2018-12-06T05:42:51.520Z,8.90
2018-12-06T05:45:19.965Z,9.00
2018-12-06T05:47:48.544Z,9.00
2018-12-06T05:50:17.009Z,9.00
2018-12-06T05:52:45.514Z,9.00
2018-12-06T05:55:14.000Z,8.90
2018-12-06T05:57:42.426Z,8.90
2018-12-06T06:00:10.942Z,8.90
2018-12-06T06:02:39.376Z,9.00
2018-12-06T06:05:08.123Z,9.00
2018-12-06T06:07:36.534Z,9.00
2018-12-06T06:10:05.578Z,9.00
2018-12-06T06:12:33.998Z,9.10
2018-12-06T06:15:04.568Z,9.00
2018-12-06T06:17:33.035Z,9.10
2018-12-06T06:20:01.500Z,9.10
2018-12-06T06:22:30.111Z,9.10
2018-12-06T06:24:58.679Z,9.10
2018-12-06T06:27:27.146Z,9.10
2018-12-06T06:29:55.624Z,9.10
2018-12-06T06:32:24.175Z,9.10
2018-12-06T06:34:52.776Z,9.00
2018-12-06T06:37:21.314Z,9.10
2018-12-06T06:39:49.731Z,9.10
2018-12-06T06:42:18.207Z,9.10
2018-12-06T06:44:46.791Z,9.00
2018-12-06T06:47:15.298Z,9.00
2018-12-06T06:49:43.825Z,9.00
2018-12-06T06:52:12.270Z,9.00
2018-12-06T06:54:40.695Z,9.00
2018-12-06T06:57:09.140Z,9.00
2018-12-06T06:59:37.547Z,9.00
2018-12-06T07:02:06.425Z,9.10
2018-12-06T07:04:34.921Z,9.10
2018-12-06T07:07:03.636Z,9.10
2018-12-06T07:09:32.061Z,9.10
2018-12-06T07:12:00.672Z,9.20
2018-12-06T07:14:29.096Z,9.30
2018-12-06T07:16:57.607Z,9.30
2018-12-06T07:19:26.083Z,9.20
2018-12-06T07:21:54.514Z,9.30
2018-12-06T07:24:23.049Z,9.30
2018-12-06T07:26:51.495Z,9.30
2018-12-06T07:29:20.123Z,9.30
2018-12-06T07:31:48.602Z,9.30
2018-12-06T07:34:17.048Z,9.30
2018-12-06T07:36:45.503Z,9.30
2018-12-06T07:39:13.956Z,9.30
2018-12-06T07:41:42.515Z,9.20
2018-12-06T07:44:10.997Z,9.30
2018-12-06T07:46:39.485Z,9.30
2018-12-06T07:49:08.245Z,9.40
2018-12-06T07:51:36.691Z,9.40
2018-12-06T07:54:05.497Z,9.50
2018-12-06T07:56:33.952Z,9.40
2018-12-06T07:59:02.511Z,9.40
2018-12-06T08:01:30.999Z,9.30
2018-12-06T08:03:59.442Z,9.40
2018-12-06T08:06:27.905Z,9.50
2018-12-06T08:08:56.353Z,9.50
2018-12-06T08:11:24.906Z,9.50
2018-12-06T08:13:53.481Z,9.60
2018-12-06T08:16:21.914Z,9.60
2018-12-06T08:18:50.500Z,9.60
2018-12-06T08:21:19.066Z,9.70
2018-12-06T08:23:47.513Z,9.70
2018-12-06T08:26:16.070Z,9.70
2018-12-06T08:28:44.598Z,9.70
2018-12-06T08:31:13.215Z,9.70
2018-12-06T08:33:41.733Z,9.70
2018-12-06T08:36:10.422Z,9.70
2018-12-06T08:38:39.068Z,9.70
2018-12-06T08:41:07.510Z,9.70
2018-12-06T08:43:35.977Z,9.80
2018-12-06T08:46:04.674Z,9.70
2018-12-06T08:48:33.163Z,9.80
2018-12-06T08:51:01.716Z,9.80
2018-12-06T08:53:30.171Z,9.90
2018-12-06T08:55:58.793Z,10.00
2018-12-06T08:58:27.253Z,10.10
2018-12-06T09:00:56.002Z,10.20
2018-12-06T09:03:24.504Z,10.30
2018-12-06T09:05:52.969Z,10.30
2018-12-06T09:08:21.566Z,10.30
2018-12-06T09:10:51.726Z,10.20
2018-12-06T09:13:20.512Z,10.30
2018-12-06T09:15:48.964Z,10.30
2018-12-06T09:18:17.495Z,10.30
2018-12-06T09:20:45.963Z,10.30
2018-12-06T09:23:14.424Z,10.40
2018-12-06T09:25:42.866Z,10.40
2018-12-06T09:28:11.307Z,10.40
2018-12-06T09:30:39.739Z,10.50
2018-12-06T09:33:08.315Z,10.60
2018-12-06T09:35:36.755Z,10.60
2018-12-06T09:38:05.328Z,10.60
2018-12-06T09:40:33.754Z,10.70
2018-12-06T09:43:02.197Z,10.70
2018-12-06T09:45:30.620Z,10.80
2018-12-06T09:47:59.060Z,10.90
2018-12-06T09:50:27.513Z,11.00
2018-12-06T09:52:55.946Z,11.10
2018-12-06T10:09:00.144Z,11.40
2018-12-06T10:11:28.568Z,11.70
2018-12-06T10:13:57.074Z,11.70
2018-12-06T10:16:25.496Z,11.80
2018-12-06T10:18:54.167Z,11.80
2018-12-06T10:21:22.761Z,11.80
2018-12-06T10:23:51.221Z,11.80
2018-12-06T10:26:19.794Z,11.80
2018-12-06T10:28:48.238Z,11.80
2018-12-06T10:31:16.699Z,11.80
2018-12-06T10:33:45.151Z,11.80
2018-12-06T10:36:13.583Z,11.80
2018-12-06T10:38:41.996Z,11.90
2018-12-06T10:41:10.443Z,12.00
2018-12-06T10:43:39.008Z,12.10
2018-12-06T10:46:07.489Z,12.20
2018-12-06T10:48:36.019Z,12.30
2018-12-06T10:51:15.846Z,12.30
2018-12-06T10:53:44.553Z,12.30
2018-12-06T10:56:13.115Z,12.50
2018-12-06T10:58:41.771Z,12.50
2018-12-06T11:01:12.234Z,12.60
2018-12-06T11:03:46.050Z,12.70
2018-12-06T11:06:14.499Z,12.70
2018-12-06T11:08:42.916Z,12.80
2018-12-06T11:11:11.341Z,12.80
2018-12-06T11:13:39.886Z,12.70
2018-12-06T11:16:08.338Z,12.70
2018-12-06T11:18:36.766Z,12.70
2018-12-06T11:21:05.213Z,12.70
2018-12-06T11:23:33.641Z,12.70
2018-12-06T11:26:02.360Z,12.90
2018-12-06T11:28:30.822Z,13.00
2018-12-06T11:30:59.495Z,13.10
2018-12-06T11:33:28.724Z,13.20
2018-12-06T11:35:57.430Z,13.20
2018-12-06T11:38:25.958Z,13.20
2018-12-06T11:40:54.410Z,13.20
2018-12-06T11:43:22.824Z,13.10
2018-12-06T11:45:52.630Z,13.10
2018-12-06T11:48:26.887Z,13.10
2018-12-06T11:50:52.692Z,13.20
2018-12-06T11:53:21.151Z,13.30
2018-12-06T11:55:49.596Z,13.40
2018-12-06T11:58:18.170Z,13.40
2018-12-06T12:00:46.574Z,13.50
2018-12-06T12:03:15.490Z,13.50
2018-12-06T12:05:44.202Z,13.50
2018-12-06T12:08:12.651Z,13.50
2018-12-06T12:10:41.088Z,13.60
2018-12-06T12:13:09.524Z,13.50
2018-12-06T12:15:37.945Z,13.50
2018-12-06T12:18:06.404Z,13.50
2018-12-06T12:20:34.867Z,13.50
2018-12-06T12:23:03.638Z,13.50
2018-12-06T12:25:32.134Z,13.50
2018-12-06T12:28:00.631Z,13.50
2018-12-06T12:30:29.054Z,13.50
2018-12-06T12:32:57.537Z,13.50
2018-12-06T12:35:26.027Z,13.60
2018-12-06T12:37:54.484Z,13.70
2018-12-06T12:40:23.027Z,13.70
2018-12-06T12:42:51.537Z,13.60
2018-12-06T12:45:20.007Z,13.60
2018-12-06T12:47:48.516Z,13.60
2018-12-06T12:50:16.938Z,13.60
2018-12-06T12:53:46.141Z,13.70
2018-12-06T12:56:14.587Z,13.70
2018-12-06T12:58:43.022Z,13.70
2018-12-06T13:01:11.463Z,13.70
2018-12-06T13:03:39.868Z,13.70
2018-12-06T13:06:08.339Z,13.70
2018-12-06T13:08:36.780Z,13.70
2018-12-06T13:11:05.914Z,13.60
2018-12-06T13:13:34.766Z,13.70
2018-12-06T13:16:03.210Z,13.70
2018-12-06T13:18:31.992Z,13.70
2018-12-06T13:21:00.450Z,13.70
2018-12-06T13:23:28.896Z,13.70
2018-12-06T13:25:57.572Z,13.80
2018-12-06T13:28:26.035Z,13.80
2018-12-06T13:30:54.602Z,13.90
2018-12-06T13:33:23.076Z,13.80
2018-12-06T13:35:51.555Z,13.80
2018-12-06T13:38:20.080Z,13.80
2018-12-06T13:40:48.547Z,13.80
2018-12-06T13:43:16.980Z,13.80
2018-12-06T13:45:45.432Z,13.80
2018-12-06T13:48:13.859Z,13.70
2018-12-06T13:50:42.328Z,13.70
2018-12-06T13:53:10.769Z,13.70
2018-12-06T13:55:39.226Z,13.70
2018-12-06T13:58:07.875Z,13.70
2018-12-06T14:00:36.606Z,13.70
2018-12-06T14:03:05.317Z,13.70
2018-12-06T14:05:33.784Z,13.60
2018-12-06T14:08:02.271Z,13.60
2018-12-06T14:10:30.748Z,13.70
2018-12-06T14:12:59.314Z,13.70
2018-12-06T14:15:27.877Z,13.60
2018-12-06T14:17:56.598Z,13.60
2018-12-06T14:20:25.067Z,13.60
2018-12-06T14:22:53.556Z,13.50
2018-12-06T14:25:22.770Z,13.50
2018-12-06T14:27:51.305Z,13.50
2018-12-06T14:30:19.749Z,13.50
2018-12-06T14:32:48.200Z,13.50
2018-12-06T14:35:16.634Z,13.50
2018-12-06T14:37:45.120Z,13.50
2018-12-06T14:40:13.626Z,13.50
2018-12-06T14:42:42.051Z,13.50
2018-12-06T14:45:10.622Z,13.40
2018-12-06T14:47:39.203Z,13.40
2018-12-06T14:50:07.987Z,13.20
2018-12-06T14:52:37.056Z,13.10
2018-12-06T14:55:05.970Z,13.10
2018-12-06T14:57:34.548Z,13.10
2018-12-06T15:00:03.262Z,13.00
2018-12-06T15:02:31.757Z,12.90
2018-12-06T15:05:07.393Z,13.00
2018-12-06T15:07:36.437Z,13.00
2018-12-06T15:10:06.447Z,12.90
2018-12-06T15:12:37.670Z,13.00
2018-12-06T15:15:06.529Z,13.00
2018-12-06T15:17:35.137Z,12.90
2018-12-06T15:20:04.114Z,12.90
2018-12-06T15:22:32.634Z,12.90
2018-12-06T15:25:01.372Z,12.90
2018-12-06T15:27:30.024Z,12.90
2018-12-06T15:29:58.691Z,13.00
2018-12-06T15:32:27.193Z,13.00
2018-12-06T15:34:55.811Z,13.00
2018-12-06T15:37:24.320Z,12.90
2018-12-06T15:39:52.827Z,12.90
2018-12-06T15:42:21.287Z,12.80
2018-12-06T15:44:49.741Z,12.90
2018-12-06T15:47:18.238Z,12.90
2018-12-06T15:49:47.617Z,13.00
2018-12-06T15:52:16.592Z,13.00
2018-12-06T15:54:45.189Z,13.10
2018-12-06T15:57:13.620Z,13.10
2018-12-06T15:59:42.122Z,13.00
2018-12-06T16:02:10.572Z,13.00
2018-12-06T16:04:39.052Z,13.00
2018-12-06T16:07:07.737Z,12.90
2018-12-06T16:09:37.201Z,12.90
2018-12-06T16:12:05.754Z,12.90
2018-12-06T16:14:34.314Z,12.90
2018-12-06T16:17:02.762Z,12.90
2018-12-06T16:19:31.336Z,12.90
2018-12-06T16:21:59.803Z,12.90
2018-12-06T16:24:28.275Z,12.90
2018-12-06T16:26:56.761Z,13.00
2018-12-06T16:29:25.245Z,13.00
2018-12-06T16:31:53.821Z,13.00
2018-12-06T16:34:22.548Z,13.00
2018-12-06T16:36:51.010Z,13.00
2018-12-06T16:39:19.500Z,13.00
2018-12-06T16:41:47.969Z,13.00
2018-12-06T16:44:16.514Z,13.00
2018-12-06T16:46:45.027Z,12.90
2018-12-06T16:49:14.677Z,13.00
2018-12-06T16:51:43.142Z,13.00
2018-12-06T16:54:11.741Z,13.10
2018-12-06T16:56:40.194Z,13.10
2018-12-06T16:59:08.690Z,13.10
2018-12-06T17:01:37.409Z,13.10
2018-12-06T17:04:05.927Z,13.00
2018-12-06T17:06:34.526Z,13.00
2018-12-06T17:09:03.139Z,13.00
2018-12-06T17:11:31.735Z,13.10
2018-12-06T17:14:00.295Z,13.10
2018-12-06T17:16:29.039Z,13.00
2018-12-06T17:49:01.017Z,13.10
2018-12-06T17:51:32.285Z,13.10
2018-12-06T17:54:02.257Z,13.00
2018-12-06T17:56:31.796Z,13.00
2018-12-06T17:59:01.044Z,13.10
2018-12-06T18:01:31.089Z,13.10
2018-12-06T18:04:00.145Z,13.10
2018-12-06T18:06:29.925Z,13.10
2018-12-06T18:09:00.979Z,13.10
2018-12-06T18:11:31.228Z,13.00
2018-12-06T18:14:00.442Z,13.10
2018-12-06T18:16:29.404Z,13.00
2018-12-06T18:18:58.597Z,13.00
2018-12-06T18:21:27.533Z,13.00
2018-12-06T18:23:56.675Z,13.00
2018-12-06T18:26:29.554Z,13.00
2018-12-06T18:28:58.564Z,13.00
2018-12-06T18:31:27.481Z,13.00
2018-12-06T18:33:56.393Z,13.00
2018-12-06T18:36:25.284Z,12.90
2018-12-06T18:38:54.197Z,13.00
2018-12-06T18:41:23.065Z,13.00
2018-12-06T18:43:52.211Z,12.90
2018-12-06T18:46:21.814Z,12.90
2018-12-06T18:48:50.761Z,12.80
2018-12-06T18:51:20.078Z,12.80
2018-12-06T18:53:51.830Z,12.70
2018-12-06T18:56:25.174Z,12.70
2018-12-06T18:58:55.046Z,12.70
2018-12-06T19:01:24.116Z,12.70
2018-12-06T19:03:53.278Z,12.60
2018-12-06T19:06:22.122Z,12.60
2018-12-06T19:08:51.581Z,12.60
2018-12-06T19:11:21.064Z,12.60
2018-12-06T19:13:51.322Z,12.60
2018-12-06T19:16:20.926Z,12.50
2018-12-06T19:18:51.835Z,12.50
2018-12-06T19:21:20.779Z,12.50
2018-12-06T19:23:49.791Z,12.60
2018-12-06T19:26:19.088Z,12.70
2018-12-06T19:28:48.783Z,12.70
2018-12-06T19:31:17.881Z,12.80
2018-12-06T19:33:48.157Z,12.70
2018-12-06T19:36:17.298Z,12.70
2018-12-06T19:38:49.637Z,12.70
2018-12-06T19:41:18.629Z,12.80
2018-12-06T19:43:48.717Z,12.90
2018-12-06T19:46:17.699Z,12.90
2018-12-06T19:48:46.971Z,12.90
2018-12-06T19:51:16.062Z,13.00
2018-12-06T19:53:45.042Z,13.00
2018-12-06T19:56:13.993Z,13.00
2018-12-06T19:58:42.931Z,12.90
2018-12-06T20:01:11.724Z,13.00
2018-12-06T20:03:40.634Z,12.90
2018-12-06T20:06:09.770Z,12.90
2018-12-06T20:08:38.643Z,12.80
2018-12-06T20:11:08.282Z,12.80
2018-12-06T20:13:37.301Z,12.80
2018-12-06T20:16:06.228Z,12.80
2018-12-06T20:18:36.679Z,12.80
2018-12-06T20:21:05.531Z,12.80
2018-12-06T20:23:34.308Z,12.90
2018-12-06T20:26:03.332Z,12.90
2018-12-06T20:28:32.933Z,12.90
2018-12-06T20:31:01.850Z,12.80
2018-12-06T20:33:30.679Z,12.80
2018-12-06T20:35:59.580Z,12.80
2018-12-06T20:38:28.410Z,12.80
2018-12-06T20:40:57.212Z,12.80
2018-12-06T20:43:26.147Z,12.90
2018-12-06T20:45:54.989Z,12.90
2018-12-06T20:48:23.919Z,12.90
2018-12-06T20:50:52.843Z,13.00
2018-12-06T20:53:21.860Z,12.90
2018-12-06T20:55:51.687Z,12.90
2018-12-06T20:58:20.698Z,12.90
2018-12-06T21:00:51.235Z,13.00
2018-12-06T21:03:21.258Z,13.10
2018-12-06T21:05:49.864Z,13.10
2018-12-06T21:08:18.449Z,13.10
2018-12-06T21:10:47.062Z,13.30
2018-12-06T21:13:15.602Z,13.40
2018-12-06T21:15:44.126Z,13.50
2018-12-06T21:18:12.634Z,13.60
2018-12-06T21:20:41.304Z,13.60
2018-12-06T21:23:09.938Z,13.60
2018-12-06T21:25:38.529Z,13.50
2018-12-06T21:28:07.123Z,13.50
2018-12-06T21:30:35.659Z,13.50
2018-12-06T21:33:04.874Z,13.60
2018-12-06T21:35:33.348Z,13.60
2018-12-06T21:38:01.949Z,13.60
2018-12-06T21:40:30.559Z,13.60
2018-12-06T21:42:59.014Z,13.60
2018-12-06T21:45:27.532Z,13.60
2018-12-06T21:47:55.979Z,13.60
2018-12-06T21:50:24.515Z,13.60
2018-12-06T21:52:52.983Z,13.60
2018-12-06T21:55:21.426Z,13.50
2018-12-06T21:57:50.833Z,13.50
2018-12-06T22:00:19.305Z,13.60
2018-12-06T22:02:47.744Z,13.60
2018-12-06T22:05:16.460Z,13.60
2018-12-06T22:07:44.898Z,13.70
2018-12-06T22:10:13.381Z,13.70
2018-12-06T22:12:41.849Z,13.60
2018-12-06T22:15:10.423Z,13.60
2018-12-06T22:17:38.955Z,13.60
2018-12-06T22:22:47.663Z,13.60
2018-12-06T22:25:21.577Z,13.60
2018-12-06T22:27:50.144Z,13.60
2018-12-06T22:30:18.655Z,13.60
2018-12-06T22:32:47.087Z,13.60
2018-12-06T22:35:15.542Z,13.50
2018-12-06T22:37:43.988Z,13.50
2018-12-06T22:40:12.432Z,13.50
2018-12-06T22:42:40.895Z,13.50
2018-12-06T22:45:20.676Z,13.50
2018-12-06T22:47:49.102Z,13.50
2018-12-06T22:50:17.550Z,13.50
2018-12-06T22:52:46.023Z,13.50
2018-12-06T22:55:14.557Z,13.50
2018-12-06T22:57:43.128Z,13.50
2018-12-06T23:00:14.574Z,13.50
2018-12-06T23:02:43.147Z,13.50
2018-12-06T23:05:11.587Z,13.50
2018-12-06T23:07:40.030Z,13.50
2018-12-06T23:10:08.767Z,13.50
2018-12-06T23:12:37.248Z,13.50
2018-12-06T23:15:29.085Z,13.50
2018-12-06T23:17:57.732Z,13.60
2018-12-06T23:20:26.386Z,13.50
2018-12-06T23:22:54.829Z,13.50
2018-12-06T23:25:30.975Z,13.50
2018-12-06T23:28:30.113Z,13.40
2018-12-06T23:37:44.690Z,13.40
2018-12-06T23:40:13.236Z,13.30
2018-12-06T23:42:41.759Z,13.30
2018-12-06T23:45:10.403Z,13.20
2018-12-06T23:47:38.863Z,13.20
2018-12-06T23:50:07.346Z,13.20
2018-12-06T23:52:35.851Z,13.20
2018-12-06T23:55:04.447Z,13.20
2018-12-06T23:57:32.919Z,13.10
